Terminal Aerodrome Forecast
Issued by NWS Wakefield, VA

Home | Current Version | Previous Version | Text Only | Print | Product List | Glossary On
Versions: 1 2 3 4 5 6 7 8 9 10 11 12 13 14 15
000
FTUS41 KAKQ 302300
TAFECG
TAF
KECG 302337Z 3100/3124 18004KT P6SM BKN250
     FM310700 21004KT 5SM BR SCT040 SCT250
     FM311200 20010KT P6SM SCT250=

USA.gov is the U.S. government's official web portal to all federal, state and local government web resources and services.